Time;durP1;ratioP1;P1;durP2;ratioP2;P2;SDS_P1;SDS_P2;PMS_P1;PMS_P2;Temp;Humidity;BMP_temperature;BMP_pressure;BME280_temperature;BME280_humidity;BME280_pressure;Samples;Min_cycle;Max_cycle;Signal;HPM_P1;HPM_P2
2023/06/03 00:00:59;;;;;;;4.78;1.90;;;;;20.20;102038.00;;;;5087943;28;20195;-77
2023/06/03 00:03:27;;;;;;;2.50;1.67;;;;;20.20;102046.00;;;;5085969;28;20589;-77
2023/06/03 00:05:55;;;;;;;3.25;1.75;;;;;20.10;102035.00;;;;5084416;28;20194;-78
2023/06/03 00:08:22;;;;;;;3.63;1.88;;;;;20.10;102043.00;;;;5083893;28;20214;-77
2023/06/03 00:10:49;;;;;;;4.18;2.15;;;;;20.10;102044.00;;;;5086216;28;20202;-78
2023/06/03 00:13:17;;;;;;;2.42;1.90;;;;;20.10;102050.00;;;;5087207;28;20195;-77
2023/06/03 00:15:44;;;;;;;3.35;1.75;;;;;20.00;102048.00;;;;5090994;28;20197;-77
2023/06/03 00:18:15;;;;;;;4.10;1.88;;;;;20.00;102047.00;;;;5091547;28;20985;-78
2023/06/03 00:20:47;;;;;;;5.30;2.00;;;;;20.00;102048.00;;;;5091567;28;20209;-78
2023/06/03 00:23:15;;;;;;;5.28;2.10;;;;;20.00;102057.00;;;;5082915;28;20202;-78
2023/06/03 00:25:43;;;;;;;3.33;1.70;;;;;19.90;102053.00;;;;5089956;28;20198;-77
2023/06/03 00:28:10;;;;;;;3.67;2.00;;;;;19.90;102067.00;;;;5087162;28;20226;-78
2023/06/03 00:30:38;;;;;;;4.55;2.08;;;;;19.90;102058.00;;;;5091438;28;20255;-78
2023/06/03 00:33:05;;;;;;;5.95;2.30;;;;;19.90;102058.00;;;;5090846;28;20226;-78
2023/06/03 00:35:35;;;;;;;4.93;2.00;;;;;19.80;102056.00;;;;5090300;28;20913;-78
2023/06/03 00:38:02;;;;;;;3.38;2.50;;;;;19.80;102058.00;;;;5090917;28;20197;-78
2023/06/03 00:40:30;;;;;;;3.58;2.47;;;;;19.80;102049.00;;;;5090930;28;20202;-78
2023/06/03 00:42:57;;;;;;;3.33;2.50;;;;;19.80;102044.00;;;;5090765;28;20191;-77
2023/06/03 00:45:24;;;;;;;4.22;2.35;;;;;19.70;102043.00;;;;5089814;28;20635;-77
2023/06/03 00:47:52;;;;;;;5.18;2.78;;;;;19.70;102044.00;;;;5089463;28;20696;-78
2023/06/03 00:50:19;;;;;;;6.38;3.22;;;;;19.70;102041.00;;;;5087678;28;20190;-78
2023/06/03 00:52:49;;;;;;;5.03;3.50;;;;;19.70;102037.00;;;;5084647;28;20202;-77
2023/06/03 00:55:16;;;;;;;4.78;2.58;;;;;19.70;102047.00;;;;5089491;28;20237;-77
2023/06/03 00:57:44;;;;;;;2.90;2.60;;;;;19.70;102049.00;;;;5088746;28;20998;-77
2023/06/03 01:00:12;;;;;;;2.50;2.28;;;;;19.60;102044.00;;;;5089704;28;20195;-77
2023/06/03 01:02:43;;;;;;;5.55;2.40;;;;;19.60;102041.00;;;;5090287;28;20679;-77
2023/06/03 01:05:11;;;;;;;3.45;2.53;;;;;19.60;102042.00;;;;5086884;28;20197;-78
2023/06/03 01:07:50;;;;;;;4.68;2.58;;;;;19.50;102038.00;;;;5089143;28;20229;-77
2023/06/03 01:10:25;;;;;;;3.05;2.53;;;;;19.50;102035.00;;;;5087888;28;20202;-78
2023/06/03 01:12:58;;;;;;;4.28;3.40;;;;;19.50;102037.00;;;;5087825;28;21131;-77
2023/06/03 01:15:28;;;;;;;3.03;2.38;;;;;19.50;102039.00;;;;5088952;28;20209;-77
2023/06/03 01:18:00;;;;;;;3.80;2.53;;;;;19.40;102036.00;;;;5090066;28;20198;-77
2023/06/03 01:20:28;;;;;;;3.97;2.83;;;;;19.40;102036.00;;;;5087884;28;20678;-77
2023/06/03 01:23:00;;;;;;;4.10;3.15;;;;;19.40;102038.00;;;;5090043;28;20230;-77
2023/06/03 01:25:28;;;;;;;6.55;3.25;;;;;19.40;102038.00;;;;5087124;28;20301;-77
2023/06/03 01:27:57;;;;;;;4.15;2.72;;;;;19.40;102041.00;;;;5088781;28;20790;-78
2023/06/03 01:30:25;;;;;;;5.45;3.00;;;;;19.40;102035.00;;;;5088942;28;20727;-77
2023/06/03 01:32:53;;;;;;;4.07;2.97;;;;;19.40;102034.00;;;;5089304;28;20238;-78
2023/06/03 01:35:21;;;;;;;5.07;2.88;;;;;19.40;102041.00;;;;5087871;28;20213;-78
2023/06/03 01:37:48;;;;;;;3.70;2.63;;;;;19.30;102042.00;;;;5088125;28;20682;-77
2023/06/03 01:40:17;;;;;;;5.05;3.28;;;;;19.30;102045.00;;;;5089406;28;20206;-78
2023/06/03 01:42:46;;;;;;;4.68;2.83;;;;;19.30;102046.00;;;;5089579;28;20202;-78
2023/06/03 01:45:13;;;;;;;3.95;2.92;;;;;19.30;102050.00;;;;5088782;28;20198;-78
2023/06/03 01:47:41;;;;;;;3.90;2.78;;;;;19.30;102047.00;;;;5088529;28;20226;-78
2023/06/03 01:50:09;;;;;;;6.03;2.90;;;;;19.30;102057.00;;;;5086675;28;20206;-77
2023/06/03 01:52:36;;;;;;;4.28;2.97;;;;;19.20;102052.00;;;;5089071;28;20198;-77
2023/06/03 01:55:04;;;;;;;4.30;3.03;;;;;19.20;102054.00;;;;5087480;28;20221;-78
2023/06/03 01:57:31;;;;;;;4.88;2.90;;;;;19.20;102048.00;;;;5089371;28;20194;-77
2023/06/03 02:00:00;;;;;;;4.95;2.97;;;;;19.20;102052.00;;;;5088431;28;20206;-77
2023/06/03 02:02:28;;;;;;;4.38;2.80;;;;;19.20;102051.00;;;;5089084;28;20244;-77
2023/06/03 02:04:56;;;;;;;5.07;3.47;;;;;19.10;102056.00;;;;5086935;28;20202;-77
2023/06/03 02:07:25;;;;;;;5.35;3.08;;;;;19.10;102053.00;;;;5082391;28;20301;-77
2023/06/03 02:09:53;;;;;;;6.30;3.38;;;;;19.10;102056.00;;;;5087481;28;20201;-78
2023/06/03 02:12:20;;;;;;;3.67;3.20;;;;;19.10;102045.00;;;;5087758;28;20218;-78
2023/06/03 02:14:53;;;;;;;4.50;3.38;;;;;19.10;102051.00;;;;5087615;28;20199;-77
2023/06/03 02:17:22;;;;;;;4.82;3.42;;;;;19.00;102044.00;;;;5080338;28;20255;-78
2023/06/03 02:19:49;;;;;;;6.20;2.92;;;;;19.00;102043.00;;;;5087635;28;20226;-77
2023/06/03 02:22:17;;;;;;;9.18;3.75;;;;;19.00;102044.00;;;;5085655;28;20206;-77
2023/06/03 02:24:46;;;;;;;8.50;3.40;;;;;19.00;102042.00;;;;5084375;28;20294;-77
2023/06/03 02:27:14;;;;;;;5.47;3.03;;;;;19.00;102044.00;;;;5084463;28;20304;-77
2023/06/03 02:29:44;;;;;;;4.10;3.13;;;;;18.90;102038.00;;;;5084138;28;20221;-78
2023/06/03 02:32:11;;;;;;;4.20;2.80;;;;;18.90;102034.00;;;;5088459;28;20680;-77
2023/06/03 02:34:40;;;;;;;3.45;2.85;;;;;18.90;102034.00;;;;5087220;28;20664;-77
2023/06/03 02:37:07;;;;;;;3.90;2.55;;;;;18.90;102039.00;;;;5087686;28;20926;-77
2023/06/03 02:39:35;;;;;;;2.78;2.53;;;;;18.90;102034.00;;;;5087808;28;20194;-78
2023/06/03 02:42:02;;;;;;;3.63;3.13;;;;;18.90;102027.00;;;;5087438;28;20202;-78
2023/06/03 02:44:30;;;;;;;3.83;2.75;;;;;18.80;102036.00;;;;5086602;28;20203;-77
2023/06/03 02:46:57;;;;;;;3.55;2.70;;;;;18.80;102030.00;;;;5087054;28;20202;-77
2023/06/03 02:49:24;;;;;;;6.78;4.15;;;;;18.80;102037.00;;;;5086381;28;20206;-77
2023/06/03 02:51:54;;;;;;;4.05;3.22;;;;;18.80;102030.00;;;;5086577;28;20310;-77
2023/06/03 02:54:22;;;;;;;9.02;3.70;;;;;18.80;102029.00;;;;5086773;28;20194;-77
2023/06/03 02:56:50;;;;;;;7.53;3.28;;;;;18.70;102033.00;;;;5086156;28;20708;-77
2023/06/03 02:59:17;;;;;;;3.72;2.97;;;;;18.70;102038.00;;;;5086663;28;20202;-77
2023/06/03 03:01:45;;;;;;;4.03;2.90;;;;;18.70;102038.00;;;;5078280;28;20683;-77
2023/06/03 03:04:12;;;;;;;4.78;2.80;;;;;18.70;102032.00;;;;5085402;28;20191;-77
2023/06/03 03:06:40;;;;;;;3.28;2.72;;;;;18.60;102037.00;;;;5084466;28;20201;-77
2023/06/03 03:09:09;;;;;;;4.40;2.55;;;;;18.60;102040.00;;;;5081985;28;20818;-77
2023/06/03 03:11:36;;;;;;;8.65;3.15;;;;;18.60;102037.00;;;;5086079;28;20225;-77
2023/06/03 03:14:04;;;;;;;3.75;3.05;;;;;18.60;102041.00;;;;5084734;28;20209;-78
2023/06/03 03:16:31;;;;;;;5.55;2.80;;;;;18.60;102042.00;;;;5085274;28;20194;-77
2023/06/03 03:18:58;;;;;;;3.65;2.42;;;;;18.50;102037.00;;;;5083922;28;20770;-77
2023/06/03 03:21:26;;;;;;;3.95;2.65;;;;;18.50;102046.00;;;;5079876;28;20201;-77
2023/06/03 03:23:54;;;;;;;4.32;2.30;;;;;18.50;102041.00;;;;5077373;28;20205;-77
2023/06/03 03:26:24;;;;;;;4.80;2.80;;;;;18.50;102044.00;;;;5084591;28;20229;-77
2023/06/03 03:28:53;;;;;;;3.95;2.45;;;;;18.50;102041.00;;;;5086466;28;20229;-77
2023/06/03 03:31:21;;;;;;;2.90;2.33;;;;;18.40;102048.00;;;;5086735;28;20198;-77
2023/06/03 03:33:50;;;;;;;3.70;2.65;;;;;18.40;102041.00;;;;5083982;28;20242;-77
2023/06/03 03:36:22;;;;;;;3.45;2.72;;;;;18.40;102047.00;;;;5078792;28;20194;-77
2023/06/03 03:39:00;;;;;;;3.25;2.53;;;;;18.30;102048.00;;;;5087511;28;20198;-77
2023/06/03 03:41:29;;;;;;;3.00;2.55;;;;;18.40;102045.00;;;;5088188;28;20194;-77
2023/06/03 03:43:57;;;;;;;6.15;3.05;;;;;18.30;102043.00;;;;5087605;28;20193;-77
2023/06/03 03:46:25;;;;;;;3.30;2.53;;;;;18.30;102044.00;;;;5088339;28;20281;-77
2023/06/03 03:48:52;;;;;;;2.92;2.40;;;;;18.30;102044.00;;;;5087837;28;20699;-77
2023/06/03 03:51:21;;;;;;;6.85;2.58;;;;;18.30;102041.00;;;;5086781;28;20210;-77
2023/06/03 03:53:49;;;;;;;2.47;2.28;;;;;18.30;102040.00;;;;5072022;28;20198;-77
2023/06/03 03:56:21;;;;;;;4.53;3.00;;;;;18.20;102043.00;;;;5083925;28;20229;-77
2023/06/03 03:58:52;;;;;;;2.42;2.08;;;;;18.20;102043.00;;;;5090731;28;20194;-77
2023/06/03 04:01:22;;;;;;;5.68;2.83;;;;;18.20;102041.00;;;;5090296;28;20194;-78
2023/06/03 04:03:51;;;;;;;4.65;2.53;;;;;18.20;102042.00;;;;5090580;28;20197;-77
2023/06/03 04:06:30;;;;;;;2.97;2.20;;;;;18.20;102043.00;;;;5075811;28;20294;-77
2023/06/03 04:08:58;;;;;;;4.60;2.22;;;;;18.20;102046.00;;;;5085872;28;20225;-77
2023/06/03 04:11:27;;;;;;;5.03;2.75;;;;;18.20;102048.00;;;;5083121;28;20221;-77
2023/06/03 04:13:57;;;;;;;2.55;2.25;;;;;18.20;102049.00;;;;5090792;28;20201;-77
2023/06/03 04:16:46;;;;;;;2.35;1.90;;;;;18.10;102049.00;;;;5087944;28;20190;-76
2023/06/03 04:19:15;;;;;;;3.03;1.95;;;;;18.20;102054.00;;;;5087590;28;20198;-77
2023/06/03 04:21:43;;;;;;;4.63;2.75;;;;;18.30;102050.00;;;;5089453;28;20641;-77
2023/06/03 04:24:11;;;;;;;2.20;1.92;;;;;18.30;102056.00;;;;5090625;28;20671;-77
2023/06/03 04:26:41;;;;;;;2.03;1.48;;;;;18.30;102053.00;;;;5090834;28;20218;-77
2023/06/03 04:29:10;;;;;;;3.40;1.98;;;;;18.30;102053.00;;;;5089722;28;20686;-77
2023/06/03 04:31:37;;;;;;;3.20;2.20;;;;;18.30;102053.00;;;;5090849;28;20202;-77
2023/06/03 04:34:05;;;;;;;3.60;2.00;;;;;18.30;102056.00;;;;5088818;28;20229;-78
2023/06/03 04:36:32;;;;;;;2.90;1.92;;;;;18.30;102058.00;;;;5085352;28;20206;-76
2023/06/03 04:38:59;;;;;;;3.42;2.47;;;;;18.30;102058.00;;;;5080777;28;20198;-77
2023/06/03 04:41:27;;;;;;;2.35;2.00;;;;;18.40;102056.00;;;;5077401;28;20191;-77
2023/06/03 04:43:55;;;;;;;3.47;2.22;;;;;18.40;102056.00;;;;5083884;28;20198;-77
2023/06/03 04:46:29;;;;;;;3.50;2.22;;;;;18.40;102058.00;;;;5083669;28;20198;-77
2023/06/03 04:48:57;;;;;;;4.47;2.08;;;;;18.40;102051.00;;;;5082780;28;20297;-77
2023/06/03 04:51:27;;;;;;;3.65;2.08;;;;;18.50;102054.00;;;;5077741;28;20203;-76
2023/06/03 04:53:56;;;;;;;4.38;1.98;;;;;18.50;102053.00;;;;5088176;28;20289;-77
2023/06/03 04:56:24;;;;;;;2.35;1.73;;;;;18.50;102062.00;;;;5086213;28;20699;-77
2023/06/03 04:58:55;;;;;;;2.35;1.73;;;;;18.60;102057.00;;;;5089252;28;20192;-77
2023/06/03 05:01:25;;;;;;;1.73;1.55;;;;;18.60;102060.00;;;;5088199;28;20208;-77
2023/06/03 05:03:53;;;;;;;2.25;1.45;;;;;18.60;102056.00;;;;5089614;28;20210;-77
2023/06/03 05:06:21;;;;;;;2.67;1.77;;;;;18.70;102064.00;;;;5086770;28;20220;-77
2023/06/03 05:08:48;;;;;;;5.28;1.98;;;;;18.70;102062.00;;;;5090775;28;20229;-76
2023/06/03 05:11:16;;;;;;;3.40;1.73;;;;;18.70;102065.00;;;;5090892;28;20190;-76
2023/06/03 05:13:43;;;;;;;4.55;1.90;;;;;18.80;102071.00;;;;5089113;28;20198;-76
2023/06/03 05:16:11;;;;;;;2.88;1.40;;;;;18.80;102063.00;;;;5089282;28;20202;-76
2023/06/03 05:18:40;;;;;;;4.20;1.70;;;;;18.90;102068.00;;;;5089048;28;20202;-77
2023/06/03 05:21:08;;;;;;;3.10;1.52;;;;;18.90;102068.00;;;;5087640;28;20190;-77
2023/06/03 05:23:35;;;;;;;2.17;1.98;;;;;19.00;102067.00;;;;5079072;28;20198;-77
2023/06/03 05:26:02;;;;;;;3.33;1.80;;;;;19.00;102072.00;;;;5084343;28;20205;-77
2023/06/03 05:28:30;;;;;;;2.40;1.33;;;;;19.10;102069.00;;;;5089533;28;20229;-77
2023/06/03 05:30:57;;;;;;;5.80;1.83;;;;;19.20;102074.00;;;;5090231;28;20196;-77
2023/06/03 05:33:25;;;;;;;3.80;1.50;;;;;19.20;102081.00;;;;5089252;28;20229;-77
2023/06/03 05:35:54;;;;;;;2.22;1.33;;;;;19.30;102080.00;;;;5090187;28;20198;-77
2023/06/03 05:38:21;;;;;;;3.10;1.67;;;;;19.40;102083.00;;;;5088830;28;20973;-77
2023/06/03 05:40:50;;;;;;;3.17;1.70;;;;;19.40;102078.00;;;;5089915;28;20209;-77
2023/06/03 05:43:17;;;;;;;2.88;1.02;;;;;19.50;102080.00;;;;5089740;28;20206;-77
2023/06/03 05:45:45;;;;;;;1.90;1.58;;;;;19.60;102080.00;;;;5089627;28;20240;-77
2023/06/03 05:48:12;;;;;;;3.53;1.65;;;;;19.60;102081.00;;;;5089321;28;20203;-77
2023/06/03 05:50:47;;;;;;;2.63;1.17;;;;;19.70;102080.00;;;;5086312;28;20201;-78
2023/06/03 05:53:19;;;;;;;2.33;1.35;;;;;19.80;102081.00;;;;5087742;28;20194;-77
2023/06/03 05:55:46;;;;;;;5.75;1.88;;;;;19.80;102083.00;;;;5089504;28;20215;-76
2023/06/03 05:58:13;;;;;;;3.08;1.08;;;;;19.90;102083.00;;;;5089236;28;20284;-78
2023/06/03 06:00:41;;;;;;;3.83;1.70;;;;;20.00;102086.00;;;;5089757;28;20209;-77
2023/06/03 06:03:08;;;;;;;1.00;0.80;;;;;20.10;102090.00;;;;5090229;28;21165;-77
2023/06/03 06:05:36;;;;;;;3.15;1.23;;;;;20.10;102097.00;;;;5089633;28;20681;-76
2023/06/03 06:08:03;;;;;;;1.35;0.98;;;;;20.20;102091.00;;;;5086089;28;20201;-77
2023/06/03 06:10:32;;;;;;;1.95;1.10;;;;;20.30;102095.00;;;;5069033;28;20657;-77
2023/06/03 06:12:59;;;;;;;1.38;1.00;;;;;20.40;102088.00;;;;5069247;28;20195;-77
2023/06/03 06:15:30;;;;;;;4.15;1.27;;;;;20.40;102083.00;;;;5069239;28;20199;-77
2023/06/03 06:17:57;;;;;;;2.20;1.40;;;;;20.50;102086.00;;;;5069937;28;20199;-77
2023/06/03 06:20:24;;;;;;;1.23;1.10;;;;;20.60;102090.00;;;;5075683;28;20198;-77
2023/06/03 06:22:52;;;;;;;1.58;1.02;;;;;20.70;102095.00;;;;5087774;28;20209;-77
2023/06/03 06:25:20;;;;;;;1.58;1.20;;;;;20.70;102098.00;;;;5087945;28;20205;-77
2023/06/03 06:27:49;;;;;;;1.65;1.00;;;;;20.80;102092.00;;;;5089595;28;20198;-77
2023/06/03 06:30:18;;;;;;;3.28;1.13;;;;;20.90;102091.00;;;;5087632;28;20725;-77
2023/06/03 06:32:49;;;;;;;2.90;1.20;;;;;20.90;102092.00;;;;5088711;28;20225;-76
2023/06/03 06:35:18;;;;;;;0.98;0.88;;;;;21.00;102093.00;;;;5088963;28;20216;-77
2023/06/03 06:37:46;;;;;;;1.27;0.93;;;;;21.10;102098.00;;;;5085524;28;20236;-77
2023/06/03 06:40:19;;;;;;;1.08;0.80;;;;;21.10;102092.00;;;;5088156;28;20194;-77
2023/06/03 06:42:48;;;;;;;1.52;1.23;;;;;21.20;102091.00;;;;5075885;28;20194;-77
2023/06/03 06:45:23;;;;;;;2.53;1.33;;;;;21.30;102093.00;;;;5089053;28;20198;-77
2023/06/03 06:47:54;;;;;;;5.43;1.13;;;;;21.40;102098.00;;;;5088286;28;20607;-77
2023/06/03 06:50:42;;;;;;;12.43;1.10;;;;;21.40;102087.00;;;;5079038;28;20250;-77
2023/06/03 06:53:09;;;;;;;1.70;1.15;;;;;21.60;102096.00;;;;5085010;28;20283;-77
2023/06/03 06:55:42;;;;;;;1.33;0.98;;;;;21.60;102098.00;;;;5085129;28;20226;-79
2023/06/03 06:58:11;;;;;;;1.02;0.77;;;;;21.70;102098.00;;;;5088501;28;20255;-77
2023/06/03 07:00:39;;;;;;;2.45;0.80;;;;;21.80;102089.00;;;;5088536;28;20198;-76
2023/06/03 07:03:08;;;;;;;5.88;0.90;;;;;21.90;102093.00;;;;5088334;28;20198;-77
2023/06/03 07:05:38;;;;;;;1.83;1.05;;;;;22.00;102103.00;;;;5088001;28;20210;-77
2023/06/03 07:08:06;;;;;;;1.13;0.90;;;;;22.10;102098.00;;;;5089289;28;20186;-77
2023/06/03 07:10:35;;;;;;;1.65;0.85;;;;;22.20;102094.00;;;;5088526;28;20234;-77
2023/06/03 07:13:03;;;;;;;1.73;0.93;;;;;22.30;102097.00;;;;5086615;28;20232;-76
2023/06/03 07:15:34;;;;;;;1.63;1.05;;;;;22.40;102098.00;;;;5087102;28;20213;-77
2023/06/03 07:18:01;;;;;;;1.40;0.88;;;;;22.50;102094.00;;;;5088285;28;20201;-80
2023/06/03 07:20:33;;;;;;;3.80;1.25;;;;;22.60;102094.00;;;;5082800;28;20301;-76
2023/06/03 07:23:00;;;;;;;2.30;1.35;;;;;22.70;102096.00;;;;5075774;28;20205;-76
2023/06/03 07:25:38;;;;;;;1.33;0.70;;;;;22.70;102092.00;;;;5090391;28;20201;-76
2023/06/03 07:28:08;;;;;;;1.30;0.65;;;;;22.90;102089.00;;;;5091782;28;20206;-76
2023/06/03 07:30:38;;;;;;;4.60;1.65;;;;;23.00;102099.00;;;;5086148;28;20252;-77
2023/06/03 07:33:06;;;;;;;1.30;0.90;;;;;23.10;102100.00;;;;5090245;28;20263;-76
2023/06/03 07:35:35;;;;;;;3.08;0.95;;;;;23.20;102105.00;;;;5091006;28;20195;-77
2023/06/03 07:38:03;;;;;;;3.40;1.10;;;;;23.30;102101.00;;;;5091574;28;20245;-78
2023/06/03 07:40:41;;;;;;;1.95;1.08;;;;;23.30;102106.00;;;;5089345;28;20194;-77
2023/06/03 07:43:08;;;;;;;1.30;0.90;;;;;23.50;102107.00;;;;5085709;28;20213;-79
2023/06/03 07:45:37;;;;;;;1.27;0.90;;;;;23.60;102101.00;;;;5090321;28;20205;-77
2023/06/03 07:48:06;;;;;;;1.27;0.90;;;;;23.70;102106.00;;;;5092226;28;20194;-77
2023/06/03 07:50:33;;;;;;;2.67;1.35;;;;;23.80;102117.00;;;;5086479;28;20218;-77
2023/06/03 07:53:03;;;;;;;2.22;1.10;;;;;23.80;102113.00;;;;5089476;28;20205;-78
2023/06/03 07:55:39;;;;;;;2.45;1.17;;;;;23.90;102119.00;;;;5086003;28;20229;-78
2023/06/03 07:58:06;;;;;;;2.45;1.40;;;;;24.10;102119.00;;;;5083343;28;20202;-77
2023/06/03 08:00:36;;;;;;;1.52;1.02;;;;;24.20;102116.00;;;;5089259;28;21237;-78
2023/06/03 08:03:04;;;;;;;3.28;1.10;;;;;24.30;102115.00;;;;5087389;28;20209;-77
2023/06/03 08:05:34;;;;;;;2.47;0.80;;;;;24.40;102127.00;;;;5084130;28;20206;-78
2023/06/03 08:08:04;;;;;;;3.28;1.00;;;;;24.50;102121.00;;;;5091129;28;20199;-78
2023/06/03 08:10:33;;;;;;;1.85;0.80;;;;;24.60;102113.00;;;;5089445;28;20214;-78
2023/06/03 08:13:01;;;;;;;2.78;1.02;;;;;24.70;102117.00;;;;5090676;28;20198;-77
2023/06/03 08:15:31;;;;;;;1.30;0.88;;;;;24.80;102107.00;;;;5089365;28;20573;-78
2023/06/03 08:18:00;;;;;;;2.95;0.88;;;;;24.90;102105.00;;;;5087718;28;20199;-78
2023/06/03 08:20:29;;;;;;;1.83;0.77;;;;;25.00;102112.00;;;;5090789;28;20648;-78
2023/06/03 08:22:57;;;;;;;1.17;0.80;;;;;25.10;102111.00;;;;5091540;28;20194;-78
2023/06/03 08:25:24;;;;;;;2.13;0.85;;;;;25.20;102112.00;;;;5090548;28;20334;-76
2023/06/03 08:27:52;;;;;;;3.35;1.10;;;;;25.30;102109.00;;;;5089781;28;20209;-77
2023/06/03 08:30:21;;;;;;;1.27;0.95;;;;;25.40;102111.00;;;;5087959;28;20214;-77
2023/06/03 08:32:48;;;;;;;1.38;0.82;;;;;25.50;102110.00;;;;5085530;28;20237;-76
2023/06/03 08:35:20;;;;;;;1.20;0.90;;;;;25.50;102122.00;;;;5087662;28;20198;-77
2023/06/03 08:37:47;;;;;;;1.70;0.93;;;;;25.60;102105.00;;;;5090354;28;20205;-77
2023/06/03 08:40:16;;;;;;;3.97;0.80;;;;;25.70;102109.00;;;;5089548;28;20205;-77
2023/06/03 08:42:45;;;;;;;1.90;0.80;;;;;25.80;102107.00;;;;5079756;28;20199;-77
2023/06/03 08:45:13;;;;;;;1.80;1.00;;;;;25.80;102102.00;;;;5089697;28;20202;-76
2023/06/03 08:47:59;;;;;;;4.35;1.45;;;;;25.80;102106.00;;;;5090252;28;20217;-76
2023/06/03 08:50:28;;;;;;;2.40;1.02;;;;;26.00;102105.00;;;;5087892;28;20218;-76
2023/06/03 08:52:57;;;;;;;5.32;0.98;;;;;26.00;102098.00;;;;5083758;28;20203;-78
2023/06/03 08:55:25;;;;;;;1.67;1.10;;;;;26.10;102097.00;;;;5089738;28;20222;-76
2023/06/03 08:57:58;;;;;;;1.42;0.65;;;;;26.20;102101.00;;;;5088330;28;20197;-77
2023/06/03 09:00:27;;;;;;;3.25;0.95;;;;;26.30;102107.00;;;;5088156;28;20202;-77
2023/06/03 09:02:55;;;;;;;1.20;0.70;;;;;26.40;102105.00;;;;5086916;28;20190;-76
2023/06/03 09:05:23;;;;;;;2.58;0.70;;;;;26.50;102107.00;;;;5089657;28;20194;-77
2023/06/03 09:07:54;;;;;;;1.13;0.43;;;;;26.50;102106.00;;;;5089909;28;20646;-77
2023/06/03 09:10:25;;;;;;;1.35;0.73;;;;;26.60;102112.00;;;;5086659;28;20221;-77
2023/06/03 09:12:55;;;;;;;1.45;1.02;;;;;26.70;102112.00;;;;5087953;28;20198;-76
2023/06/03 09:15:22;;;;;;;0.70;0.52;;;;;26.80;102105.00;;;;5088575;28;20212;-76
2023/06/03 09:17:50;;;;;;;0.82;0.50;;;;;26.80;102111.00;;;;5089151;28;20691;-77
2023/06/03 09:20:17;;;;;;;2.30;0.68;;;;;26.90;102118.00;;;;5083875;28;20267;-78
2023/06/03 09:22:46;;;;;;;1.80;0.90;;;;;26.90;102113.00;;;;5086056;28;20198;-76
2023/06/03 09:25:15;;;;;;;0.75;0.47;;;;;26.90;102105.00;;;;5087623;28;20201;-77
2023/06/03 09:27:42;;;;;;;2.63;0.70;;;;;27.00;102105.00;;;;5081403;28;20213;-77
2023/06/03 09:30:11;;;;;;;0.85;0.47;;;;;27.10;102117.00;;;;5089807;28;20229;-78
2023/06/03 09:32:39;;;;;;;4.15;0.82;;;;;27.20;102112.00;;;;5087933;28;20236;-78
2023/06/03 09:35:07;;;;;;;2.95;0.70;;;;;27.30;102113.00;;;;5089343;28;20270;-79
2023/06/03 09:37:35;;;;;;;8.90;0.98;;;;;27.30;102114.00;;;;5088271;28;20699;-77
2023/06/03 09:40:04;;;;;;;11.40;1.00;;;;;27.40;102131.00;;;;5089296;28;20209;-78
2023/06/03 09:42:43;;;;;;;1.70;0.90;;;;;27.40;102119.00;;;;5083365;28;20264;-78
2023/06/03 09:45:24;;;;;;;1.00;0.55;;;;;27.40;102115.00;;;;5088349;28;20202;-78
2023/06/03 09:47:51;;;;;;;1.05;0.63;;;;;27.60;102113.00;;;;5088225;28;20609;-78
2023/06/03 09:50:19;;;;;;;0.88;0.50;;;;;27.60;102116.00;;;;5087017;28;20218;-78
2023/06/03 09:52:46;;;;;;;5.75;0.70;;;;;27.70;102109.00;;;;5085829;28;20201;-78
2023/06/03 09:55:15;;;;;;;1.10;0.65;;;;;27.70;102109.00;;;;5088494;28;20226;-78
2023/06/03 09:58:00;;;;;;;1.05;0.60;;;;;27.80;102095.00;;;;5085516;28;20269;-78
2023/06/03 10:00:27;;;;;;;0.90;0.60;;;;;27.80;102107.00;;;;5076569;28;20281;-78
2023/06/03 10:03:07;;;;;;;0.60;0.60;;;;;27.70;102117.00;;;;5087168;28;20202;-77
2023/06/03 10:05:35;;;;;;;1.25;0.70;;;;;27.80;102103.00;;;;5087925;28;20278;-78
2023/06/03 10:08:03;;;;;;;1.30;0.50;;;;;27.80;102102.00;;;;5087273;28;20715;-78
2023/06/03 10:10:31;;;;;;;1.38;0.50;;;;;27.80;102102.00;;;;5087895;28;20586;-79
2023/06/03 10:13:19;;;;;;;1.20;0.70;;;;;27.70;102103.00;;;;5089325;28;20575;-79
2023/06/03 10:15:46;;;;;;;9.38;1.17;;;;;27.90;102107.00;;;;5086853;28;20267;-78
2023/06/03 10:18:13;;;;;;;0.60;0.50;;;;;28.00;102109.00;;;;5086095;28;20205;-78
2023/06/03 10:20:43;;;;;;;0.68;0.50;;;;;28.00;102096.00;;;;5088097;28;20202;-78
2023/06/03 10:23:11;;;;;;;1.85;0.63;;;;;28.10;102110.00;;;;5085702;28;20198;-77
2023/06/03 10:25:42;;;;;;;2.08;0.68;;;;;28.10;102106.00;;;;5085877;28;20186;-77
2023/06/03 10:28:13;;;;;;;1.10;0.50;;;;;28.10;102105.00;;;;5087911;28;20194;-77
2023/06/03 10:30:41;;;;;;;0.52;0.50;;;;;28.20;102107.00;;;;5086988;28;20230;-78
2023/06/03 10:33:10;;;;;;;2.15;0.80;;;;;28.20;102105.00;;;;5086975;28;20221;-77
2023/06/03 10:35:37;;;;;;;1.83;0.80;;;;;28.20;102106.00;;;;5087246;28;20206;-78
2023/06/03 10:38:06;;;;;;;2.95;0.90;;;;;28.30;102095.00;;;;5086752;28;20190;-78
2023/06/03 10:40:33;;;;;;;1.20;0.70;;;;;28.30;102087.00;;;;5087687;28;20612;-78
2023/06/03 10:43:01;;;;;;;1.50;0.60;;;;;28.30;102083.00;;;;5085969;28;20687;-78
2023/06/03 10:45:30;;;;;;;1.80;0.65;;;;;28.30;102084.00;;;;5085328;28;20194;-78
2023/06/03 10:48:01;;;;;;;0.95;0.60;;;;;28.40;102093.00;;;;5086442;28;20204;-79
2023/06/03 10:50:40;;;;;;;1.80;0.40;;;;;28.40;102093.00;;;;5084826;28;20214;-78
2023/06/03 10:53:20;;;;;;;0.95;0.55;;;;;28.40;102090.00;;;;5078927;28;20194;-77
2023/06/03 10:56:03;;;;;;;1.17;0.75;;;;;28.40;102089.00;;;;5083689;28;20717;-77
2023/06/03 10:58:31;;;;;;;1.92;0.60;;;;;28.50;102094.00;;;;5068029;28;20203;-78
2023/06/03 11:01:01;;;;;;;0.95;0.43;;;;;28.60;102083.00;;;;5083243;28;20198;-78
2023/06/03 11:03:30;;;;;;;2.40;0.50;;;;;28.60;102092.00;;;;5087857;28;20194;-78
2023/06/03 11:06:37;;;;;;;1.00;0.68;;;;;28.50;102107.00;;;;5087566;28;20287;-80
2023/06/03 11:09:08;;;;;;;1.30;0.55;;;;;28.60;102095.00;;;;5071474;28;20212;-79
2023/06/03 11:12:03;;;;;;;1.15;0.43;;;;;28.50;102093.00;;;;5084614;28;20233;-78
2023/06/03 11:14:56;;;;;;;1.40;0.55;;;;;28.50;102103.00;;;;5087314;28;20210;-78
2023/06/03 11:17:28;;;;;;;0.90;0.50;;;;;28.50;102099.00;;;;5086233;28;20199;-79
2023/06/03 11:19:57;;;;;;;0.43;0.30;;;;;28.60;102097.00;;;;5087742;28;20229;-78
2023/06/03 11:22:41;;;;;;;0.60;0.40;;;;;28.50;102093.00;;;;5086643;28;20208;-78
2023/06/03 11:25:26;;;;;;;0.85;0.43;;;;;28.60;102090.00;;;;5082228;28;20682;-79
2023/06/03 11:27:53;;;;;;;0.63;0.47;;;;;28.50;102096.00;;;;5085603;28;20201;-78
2023/06/03 11:30:20;;;;;;;0.47;0.35;;;;;28.50;102098.00;;;;5083425;28;20221;-79
2023/06/03 11:33:10;;;;;;;0.40;0.30;;;;;28.30;102097.00;;;;5086098;28;20222;-80
2023/06/03 11:35:37;;;;;;;0.32;0.20;;;;;28.50;102091.00;;;;5081039;28;20247;-78
2023/06/03 11:38:05;;;;;;;1.10;0.30;;;;;28.50;102086.00;;;;5085919;28;20862;-76
2023/06/03 11:40:45;;;;;;;0.50;0.40;;;;;28.40;102084.00;;;;5087000;28;20229;-76
2023/06/03 11:43:12;;;;;;;1.13;0.43;;;;;28.50;102095.00;;;;5087777;28;20663;-77
2023/06/03 11:45:40;;;;;;;1.13;0.60;;;;;28.50;102086.00;;;;5079378;28;20195;-77
2023/06/03 11:48:11;;;;;;;1.25;0.60;;;;;28.50;102091.00;;;;5087441;28;20225;-78
2023/06/03 11:50:50;;;;;;;1.25;0.63;;;;;28.40;102079.00;;;;5084898;28;20283;-76
2023/06/03 11:53:33;;;;;;;0.73;0.50;;;;;28.40;102089.00;;;;5073780;28;20354;-75
2023/06/03 11:56:08;;;;;;;0.57;0.38;;;;;28.50;102078.00;;;;5083894;28;20704;-75
2023/06/03 11:58:36;;;;;;;0.85;0.60;;;;;28.60;102084.00;;;;5067087;28;20206;-75
2023/06/03 12:01:10;;;;;;;1.90;0.47;;;;;28.60;102083.00;;;;5082067;28;20187;-76
2023/06/03 12:03:39;;;;;;;0.88;0.40;;;;;28.60;102080.00;;;;5079078;28;20204;-77
2023/06/03 12:06:07;;;;;;;0.63;0.30;;;;;28.50;102085.00;;;;5087302;28;20687;-77
2023/06/03 12:08:47;;;;;;;0.93;0.20;;;;;28.40;102085.00;;;;5087140;28;20198;-75
2023/06/03 12:11:28;;;;;;;7.00;0.50;;;;;28.40;102075.00;;;;5090424;28;20712;-76
2023/06/03 12:13:56;;;;;;;0.70;0.40;;;;;28.50;102078.00;;;;5082818;28;20198;-77
2023/06/03 12:16:27;;;;;;;1.13;0.50;;;;;28.40;102082.00;;;;5089406;28;20221;-77
2023/06/03 12:18:56;;;;;;;1.70;0.13;;;;;28.50;102080.00;;;;5090968;28;20206;-75
2023/06/03 12:21:24;;;;;;;1.05;0.50;;;;;28.50;102075.00;;;;5091111;28;20206;-76